sensor_id;sensor_type;location;lat;lon;timestamp;P1;durP1;ratioP1;P2;durP2;ratioP2
22289;SDS011;11313;50.116;8.424;2023-07-31T00:02:00;1.42;;;1.23;;
22289;SDS011;11313;50.116;8.424;2023-07-31T00:04:25;1.67;;;1.00;;
22289;SDS011;11313;50.116;8.424;2023-07-31T00:06:51;1.98;;;1.00;;
22289;SDS011;11313;50.116;8.424;2023-07-31T00:09:16;1.30;;;1.20;;
22289;SDS011;11313;50.116;8.424;2023-07-31T00:11:42;1.55;;;1.20;;
22289;SDS011;11313;50.116;8.424;2023-07-31T00:14:07;1.63;;;1.00;;
22289;SDS011;11313;50.116;8.424;2023-07-31T00:16:33;1.75;;;0.90;;
22289;SDS011;11313;50.116;8.424;2023-07-31T00:18:58;1.08;;;0.98;;
22289;SDS011;11313;50.116;8.424;2023-07-31T00:21:24;1.88;;;1.05;;
22289;SDS011;11313;50.116;8.424;2023-07-31T00:23:49;1.27;;;1.10;;
22289;SDS011;11313;50.116;8.424;2023-07-31T00:26:15;1.50;;;1.10;;
22289;SDS011;11313;50.116;8.424;2023-07-31T00:28:40;1.45;;;1.10;;
22289;SDS011;11313;50.116;8.424;2023-07-31T00:31:06;1.67;;;1.15;;
22289;SDS011;11313;50.116;8.424;2023-07-31T00:33:31;1.42;;;1.10;;
22289;SDS011;11313;50.116;8.424;2023-07-31T00:35:59;1.42;;;1.02;;
22289;SDS011;11313;50.116;8.424;2023-07-31T00:38:24;1.02;;;0.93;;
22289;SDS011;11313;50.116;8.424;2023-07-31T00:40:50;2.63;;;1.10;;
22289;SDS011;11313;50.116;8.424;2023-07-31T00:43:15;1.10;;;1.00;;
22289;SDS011;11313;50.116;8.424;2023-07-31T00:45:41;0.85;;;0.82;;
22289;SDS011;11313;50.116;8.424;2023-07-31T00:48:07;1.70;;;1.00;;
22289;SDS011;11313;50.116;8.424;2023-07-31T00:50:32;0.85;;;0.85;;
22289;SDS011;11313;50.116;8.424;2023-07-31T00:52:59;1.10;;;1.00;;
22289;SDS011;11313;50.116;8.424;2023-07-31T00:55:24;1.48;;;1.08;;
22289;SDS011;11313;50.116;8.424;2023-07-31T00:57:50;1.92;;;1.20;;
22289;SDS011;11313;50.116;8.424;2023-07-31T01:00:17;1.05;;;0.95;;
22289;SDS011;11313;50.116;8.424;2023-07-31T01:02:43;1.20;;;1.10;;
22289;SDS011;11313;50.116;8.424;2023-07-31T01:05:09;0.90;;;0.80;;
22289;SDS011;11313;50.116;8.424;2023-07-31T01:07:37;1.10;;;1.00;;
22289;SDS011;11313;50.116;8.424;2023-07-31T01:10:22;2.03;;;1.02;;
22289;SDS011;11313;50.116;8.424;2023-07-31T01:12:51;0.87;;;0.83;;
22289;SDS011;11313;50.116;8.424;2023-07-31T01:15:18;1.10;;;1.00;;
22289;SDS011;11313;50.116;8.424;2023-07-31T01:17:44;1.00;;;0.90;;
22289;SDS011;11313;50.116;8.424;2023-07-31T01:20:11;1.75;;;1.00;;
22289;SDS011;11313;50.116;8.424;2023-07-31T01:25:53;1.20;;;1.10;;
22289;SDS011;11313;50.116;8.424;2023-07-31T01:31:35;1.42;;;0.90;;
22289;SDS011;11313;50.116;8.424;2023-07-31T01:34:01;1.50;;;1.10;;
22289;SDS011;11313;50.116;8.424;2023-07-31T01:36:28;0.82;;;0.80;;
22289;SDS011;11313;50.116;8.424;2023-07-31T01:38:58;1.05;;;0.90;;
22289;SDS011;11313;50.116;8.424;2023-07-31T01:41:25;1.33;;;1.23;;
22289;SDS011;11313;50.116;8.424;2023-07-31T01:43:51;1.13;;;0.90;;
22289;SDS011;11313;50.116;8.424;2023-07-31T01:46:16;1.00;;;0.90;;
22289;SDS011;11313;50.116;8.424;2023-07-31T01:48:42;1.00;;;0.90;;
22289;SDS011;11313;50.116;8.424;2023-07-31T01:51:07;1.02;;;0.93;;
22289;SDS011;11313;50.116;8.424;2023-07-31T01:53:33;1.10;;;1.00;;
22289;SDS011;11313;50.116;8.424;2023-07-31T01:55:58;1.02;;;0.85;;
22289;SDS011;11313;50.116;8.424;2023-07-31T01:58:24;2.63;;;1.10;;
22289;SDS011;11313;50.116;8.424;2023-07-31T02:00:50;1.20;;;0.95;;
22289;SDS011;11313;50.116;8.424;2023-07-31T02:03:15;1.73;;;1.10;;
22289;SDS011;11313;50.116;8.424;2023-07-31T02:05:47;1.42;;;1.10;;
22289;SDS011;11313;50.116;8.424;2023-07-31T02:08:13;1.02;;;0.93;;
22289;SDS011;11313;50.116;8.424;2023-07-31T02:10:39;1.77;;;0.90;;
22289;SDS011;11313;50.116;8.424;2023-07-31T02:13:04;1.05;;;0.88;;
22289;SDS011;11313;50.116;8.424;2023-07-31T02:15:30;1.23;;;0.90;;
22289;SDS011;11313;50.116;8.424;2023-07-31T02:17:55;2.40;;;1.10;;
22289;SDS011;11313;50.116;8.424;2023-07-31T02:20:21;1.27;;;0.90;;
22289;SDS011;11313;50.116;8.424;2023-07-31T02:22:47;2.72;;;0.80;;
22289;SDS011;11313;50.116;8.424;2023-07-31T02:25:12;2.08;;;1.00;;
22289;SDS011;11313;50.116;8.424;2023-07-31T02:27:38;0.93;;;0.85;;
22289;SDS011;11313;50.116;8.424;2023-07-31T02:30:04;0.98;;;0.80;;
22289;SDS011;11313;50.116;8.424;2023-07-31T02:32:29;0.88;;;0.80;;
22289;SDS011;11313;50.116;8.424;2023-07-31T02:34:55;0.85;;;0.80;;
22289;SDS011;11313;50.116;8.424;2023-07-31T02:37:21;0.98;;;0.90;;
22289;SDS011;11313;50.116;8.424;2023-07-31T02:39:46;0.93;;;0.80;;
22289;SDS011;11313;50.116;8.424;2023-07-31T02:42:12;1.20;;;1.08;;
22289;SDS011;11313;50.116;8.424;2023-07-31T02:44:38;2.15;;;1.25;;
22289;SDS011;11313;50.116;8.424;2023-07-31T02:47:04;0.88;;;0.75;;
22289;SDS011;11313;50.116;8.424;2023-07-31T02:49:29;0.90;;;0.90;;
22289;SDS011;11313;50.116;8.424;2023-07-31T02:51:55;0.98;;;0.80;;
22289;SDS011;11313;50.116;8.424;2023-07-31T02:54:20;1.25;;;0.93;;
22289;SDS011;11313;50.116;8.424;2023-07-31T02:56:46;0.93;;;0.70;;
22289;SDS011;11313;50.116;8.424;2023-07-31T02:59:12;0.82;;;0.70;;
22289;SDS011;11313;50.116;8.424;2023-07-31T03:01:38;0.85;;;0.85;;
22289;SDS011;11313;50.116;8.424;2023-07-31T03:04:03;1.20;;;0.95;;
22289;SDS011;11313;50.116;8.424;2023-07-31T03:06:29;1.00;;;0.80;;
22289;SDS011;11313;50.116;8.424;2023-07-31T03:08:55;1.27;;;0.93;;
22289;SDS011;11313;50.116;8.424;2023-07-31T03:11:20;1.52;;;1.20;;
22289;SDS011;11313;50.116;8.424;2023-07-31T03:13:46;0.98;;;0.80;;
22289;SDS011;11313;50.116;8.424;2023-07-31T03:16:11;0.93;;;0.80;;
22289;SDS011;11313;50.116;8.424;2023-07-31T03:18:37;0.93;;;0.88;;
22289;SDS011;11313;50.116;8.424;2023-07-31T03:21:02;1.02;;;0.90;;
22289;SDS011;11313;50.116;8.424;2023-07-31T03:23:29;0.82;;;0.80;;
22289;SDS011;11313;50.116;8.424;2023-07-31T03:25:55;0.80;;;0.80;;
22289;SDS011;11313;50.116;8.424;2023-07-31T03:28:22;0.73;;;0.70;;
22289;SDS011;11313;50.116;8.424;2023-07-31T03:30:47;1.00;;;0.90;;
22289;SDS011;11313;50.116;8.424;2023-07-31T03:33:13;0.60;;;0.60;;
22289;SDS011;11313;50.116;8.424;2023-07-31T03:35:38;1.27;;;1.08;;
22289;SDS011;11313;50.116;8.424;2023-07-31T03:38:04;1.08;;;0.80;;
22289;SDS011;11313;50.116;8.424;2023-07-31T03:40:29;0.85;;;0.73;;
22289;SDS011;11313;50.116;8.424;2023-07-31T03:42:55;1.00;;;0.80;;
22289;SDS011;11313;50.116;8.424;2023-07-31T03:45:20;1.00;;;0.90;;
22289;SDS011;11313;50.116;8.424;2023-07-31T03:47:46;1.17;;;0.80;;
22289;SDS011;11313;50.116;8.424;2023-07-31T03:50:11;0.93;;;0.82;;
22289;SDS011;11313;50.116;8.424;2023-07-31T03:52:37;1.00;;;0.90;;
22289;SDS011;11313;50.116;8.424;2023-07-31T03:55:02;0.77;;;0.77;;
22289;SDS011;11313;50.116;8.424;2023-07-31T03:57:28;1.05;;;0.90;;
22289;SDS011;11313;50.116;8.424;2023-07-31T03:59:53;0.90;;;0.80;;
22289;SDS011;11313;50.116;8.424;2023-07-31T04:02:19;0.77;;;0.77;;
22289;SDS011;11313;50.116;8.424;2023-07-31T04:04:44;0.77;;;0.77;;
22289;SDS011;11313;50.116;8.424;2023-07-31T04:07:10;0.80;;;0.80;;
22289;SDS011;11313;50.116;8.424;2023-07-31T04:09:35;0.82;;;0.80;;
22289;SDS011;11313;50.116;8.424;2023-07-31T04:12:01;0.90;;;0.80;;
22289;SDS011;11313;50.116;8.424;2023-07-31T04:14:26;0.80;;;0.77;;
22289;SDS011;11313;50.116;8.424;2023-07-31T04:16:52;1.00;;;0.90;;
22289;SDS011;11313;50.116;8.424;2023-07-31T04:19:17;4.03;;;1.30;;
22289;SDS011;11313;50.116;8.424;2023-07-31T04:21:43;2.53;;;1.10;;
22289;SDS011;11313;50.116;8.424;2023-07-31T04:24:08;2.88;;;1.20;;
22289;SDS011;11313;50.116;8.424;2023-07-31T04:26:34;1.17;;;1.08;;
22289;SDS011;11313;50.116;8.424;2023-07-31T04:28:59;1.13;;;1.00;;
22289;SDS011;11313;50.116;8.424;2023-07-31T04:31:25;1.85;;;0.90;;
22289;SDS011;11313;50.116;8.424;2023-07-31T04:33:50;0.88;;;0.80;;
22289;SDS011;11313;50.116;8.424;2023-07-31T04:36:16;1.45;;;1.00;;
22289;SDS011;11313;50.116;8.424;2023-07-31T04:38:41;1.63;;;1.02;;
22289;SDS011;11313;50.116;8.424;2023-07-31T04:41:07;1.95;;;0.80;;
22289;SDS011;11313;50.116;8.424;2023-07-31T04:43:32;1.50;;;0.88;;
22289;SDS011;11313;50.116;8.424;2023-07-31T04:45:58;3.42;;;1.10;;
22289;SDS011;11313;50.116;8.424;2023-07-31T04:48:23;1.08;;;0.98;;
22289;SDS011;11313;50.116;8.424;2023-07-31T04:50:49;2.25;;;1.20;;
22289;SDS011;11313;50.116;8.424;2023-07-31T04:53:14;1.33;;;1.02;;
22289;SDS011;11313;50.116;8.424;2023-07-31T04:55:40;1.23;;;0.90;;
22289;SDS011;11313;50.116;8.424;2023-07-31T04:58:05;1.45;;;0.90;;
22289;SDS011;11313;50.116;8.424;2023-07-31T05:00:31;1.30;;;0.90;;
22289;SDS011;11313;50.116;8.424;2023-07-31T05:02:56;1.88;;;0.90;;
22289;SDS011;11313;50.116;8.424;2023-07-31T05:05:22;1.80;;;1.00;;
22289;SDS011;11313;50.116;8.424;2023-07-31T05:07:48;1.20;;;0.90;;
22289;SDS011;11313;50.116;8.424;2023-07-31T05:10:13;1.92;;;1.10;;
22289;SDS011;11313;50.116;8.424;2023-07-31T05:12:39;1.73;;;0.93;;
22289;SDS011;11313;50.116;8.424;2023-07-31T05:15:04;1.08;;;0.90;;
22289;SDS011;11313;50.116;8.424;2023-07-31T05:17:30;1.27;;;0.90;;
22289;SDS011;11313;50.116;8.424;2023-07-31T05:19:56;0.85;;;0.82;;
22289;SDS011;11313;50.116;8.424;2023-07-31T05:22:22;1.10;;;1.00;;
22289;SDS011;11313;50.116;8.424;2023-07-31T05:24:47;1.17;;;0.80;;
22289;SDS011;11313;50.116;8.424;2023-07-31T05:27:13;1.52;;;1.00;;
22289;SDS011;11313;50.116;8.424;2023-07-31T05:29:40;1.58;;;1.00;;
22289;SDS011;11313;50.116;8.424;2023-07-31T05:32:06;1.25;;;0.90;;
22289;SDS011;11313;50.116;8.424;2023-07-31T05:34:31;1.85;;;1.00;;
22289;SDS011;11313;50.116;8.424;2023-07-31T05:36:57;1.35;;;0.93;;
22289;SDS011;11313;50.116;8.424;2023-07-31T05:39:22;1.00;;;0.90;;
22289;SDS011;11313;50.116;8.424;2023-07-31T05:41:48;0.82;;;0.68;;
22289;SDS011;11313;50.116;8.424;2023-07-31T05:44:13;0.90;;;0.90;;
22289;SDS011;11313;50.116;8.424;2023-07-31T05:46:39;1.25;;;0.90;;
22289;SDS011;11313;50.116;8.424;2023-07-31T05:49:04;1.67;;;1.02;;
22289;SDS011;11313;50.116;8.424;2023-07-31T05:51:30;1.00;;;0.90;;
22289;SDS011;11313;50.116;8.424;2023-07-31T05:53:55;0.85;;;0.80;;
22289;SDS011;11313;50.116;8.424;2023-07-31T05:56:21;1.77;;;0.90;;
22289;SDS011;11313;50.116;8.424;2023-07-31T05:58:46;1.33;;;0.90;;
22289;SDS011;11313;50.116;8.424;2023-07-31T06:01:13;1.45;;;0.90;;
22289;SDS011;11313;50.116;8.424;2023-07-31T06:03:40;1.50;;;1.00;;
22289;SDS011;11313;50.116;8.424;2023-07-31T06:06:06;2.33;;;1.00;;
22289;SDS011;11313;50.116;8.424;2023-07-31T06:08:31;1.67;;;0.90;;
22289;SDS011;11313;50.116;8.424;2023-07-31T06:10:57;1.35;;;0.80;;
22289;SDS011;11313;50.116;8.424;2023-07-31T06:13:22;1.10;;;1.00;;
22289;SDS011;11313;50.116;8.424;2023-07-31T06:15:48;1.73;;;1.08;;
22289;SDS011;11313;50.116;8.424;2023-07-31T06:18:13;0.98;;;0.80;;
22289;SDS011;11313;50.116;8.424;2023-07-31T06:20:38;1.75;;;0.90;;
22289;SDS011;11313;50.116;8.424;2023-07-31T06:23:05;1.20;;;1.02;;
22289;SDS011;11313;50.116;8.424;2023-07-31T06:25:31;1.52;;;0.88;;
22289;SDS011;11313;50.116;8.424;2023-07-31T06:27:56;2.13;;;1.10;;
22289;SDS011;11313;50.116;8.424;2023-07-31T06:30:22;1.45;;;1.00;;
22289;SDS011;11313;50.116;8.424;2023-07-31T06:32:47;1.33;;;1.02;;
22289;SDS011;11313;50.116;8.424;2023-07-31T06:35:13;1.65;;;1.13;;
22289;SDS011;11313;50.116;8.424;2023-07-31T06:37:38;2.00;;;1.10;;
22289;SDS011;11313;50.116;8.424;2023-07-31T06:40:05;1.30;;;1.00;;
22289;SDS011;11313;50.116;8.424;2023-07-31T06:42:33;1.25;;;0.88;;
22289;SDS011;11313;50.116;8.424;2023-07-31T06:44:59;1.25;;;0.90;;
22289;SDS011;11313;50.116;8.424;2023-07-31T06:47:25;1.13;;;0.80;;
22289;SDS011;11313;50.116;8.424;2023-07-31T06:49:51;2.70;;;1.23;;
22289;SDS011;11313;50.116;8.424;2023-07-31T06:52:16;2.03;;;1.00;;
22289;SDS011;11313;50.116;8.424;2023-07-31T06:54:42;2.13;;;1.35;;
22289;SDS011;11313;50.116;8.424;2023-07-31T06:57:07;1.48;;;0.98;;
22289;SDS011;11313;50.116;8.424;2023-07-31T06:59:33;2.28;;;0.98;;
22289;SDS011;11313;50.116;8.424;2023-07-31T07:01:58;1.45;;;1.10;;
22289;SDS011;11313;50.116;8.424;2023-07-31T07:04:24;1.35;;;0.90;;
22289;SDS011;11313;50.116;8.424;2023-07-31T07:06:49;1.77;;;0.95;;
22289;SDS011;11313;50.116;8.424;2023-07-31T07:09:15;1.75;;;0.90;;
22289;SDS011;11313;50.116;8.424;2023-07-31T07:11:40;1.20;;;0.88;;
22289;SDS011;11313;50.116;8.424;2023-07-31T07:14:06;2.40;;;1.00;;
22289;SDS011;11313;50.116;8.424;2023-07-31T07:16:31;3.33;;;1.10;;
22289;SDS011;11313;50.116;8.424;2023-07-31T07:18:57;1.95;;;0.90;;
22289;SDS011;11313;50.116;8.424;2023-07-31T07:21:22;0.90;;;0.90;;
22289;SDS011;11313;50.116;8.424;2023-07-31T07:23:48;2.40;;;0.88;;
22289;SDS011;11313;50.116;8.424;2023-07-31T07:26:13;1.35;;;0.98;;
22289;SDS011;11313;50.116;8.424;2023-07-31T07:28:39;2.33;;;0.90;;
22289;SDS011;11313;50.116;8.424;2023-07-31T07:31:04;1.17;;;0.98;;
22289;SDS011;11313;50.116;8.424;2023-07-31T07:33:30;1.95;;;0.80;;
22289;SDS011;11313;50.116;8.424;2023-07-31T07:35:55;1.25;;;0.90;;
22289;SDS011;11313;50.116;8.424;2023-07-31T07:38:25;2.60;;;0.80;;
22289;SDS011;11313;50.116;8.424;2023-07-31T07:40:51;1.33;;;1.00;;
22289;SDS011;11313;50.116;8.424;2023-07-31T07:43:18;1.05;;;0.90;;
22289;SDS011;11313;50.116;8.424;2023-07-31T07:45:43;2.55;;;1.17;;
22289;SDS011;11313;50.116;8.424;2023-07-31T07:48:09;1.13;;;0.90;;
22289;SDS011;11313;50.116;8.424;2023-07-31T07:50:34;2.30;;;1.17;;
22289;SDS011;11313;50.116;8.424;2023-07-31T07:53:00;1.83;;;1.10;;
22289;SDS011;11313;50.116;8.424;2023-07-31T07:55:26;1.77;;;1.10;;
22289;SDS011;11313;50.116;8.424;2023-07-31T07:57:51;1.55;;;1.00;;
22289;SDS011;11313;50.116;8.424;2023-07-31T08:00:18;2.15;;;1.20;;
22289;SDS011;11313;50.116;8.424;2023-07-31T08:02:44;1.55;;;1.00;;
22289;SDS011;11313;50.116;8.424;2023-07-31T08:05:09;1.58;;;1.00;;
22289;SDS011;11313;50.116;8.424;2023-07-31T08:07:35;2.38;;;1.10;;
22289;SDS011;11313;50.116;8.424;2023-07-31T08:10:00;3.13;;;1.30;;
22289;SDS011;11313;50.116;8.424;2023-07-31T08:12:26;2.35;;;1.00;;
22289;SDS011;11313;50.116;8.424;2023-07-31T08:14:51;1.25;;;1.10;;
22289;SDS011;11313;50.116;8.424;2023-07-31T08:17:17;1.02;;;0.90;;
22289;SDS011;11313;50.116;8.424;2023-07-31T08:19:42;1.98;;;1.00;;
22289;SDS011;11313;50.116;8.424;2023-07-31T08:22:09;1.90;;;1.20;;
22289;SDS011;11313;50.116;8.424;2023-07-31T08:24:34;2.53;;;1.00;;
22289;SDS011;11313;50.116;8.424;2023-07-31T08:27:00;1.65;;;1.02;;
22289;SDS011;11313;50.116;8.424;2023-07-31T08:29:25;2.15;;;1.00;;
22289;SDS011;11313;50.116;8.424;2023-07-31T08:31:51;3.22;;;1.00;;
22289;SDS011;11313;50.116;8.424;2023-07-31T08:34:16;1.80;;;1.00;;
22289;SDS011;11313;50.116;8.424;2023-07-31T08:36:42;1.77;;;0.98;;
22289;SDS011;11313;50.116;8.424;2023-07-31T08:39:07;2.97;;;1.20;;
22289;SDS011;11313;50.116;8.424;2023-07-31T08:41:37;1.90;;;1.10;;
22289;SDS011;11313;50.116;8.424;2023-07-31T08:44:06;1.80;;;1.13;;
22289;SDS011;11313;50.116;8.424;2023-07-31T08:46:33;1.70;;;1.00;;
22289;SDS011;11313;50.116;8.424;2023-07-31T08:48:59;2.67;;;1.13;;
22289;SDS011;11313;50.116;8.424;2023-07-31T08:51:26;2.10;;;1.10;;
22289;SDS011;11313;50.116;8.424;2023-07-31T08:53:52;1.63;;;1.20;;
22289;SDS011;11313;50.116;8.424;2023-07-31T08:56:18;2.17;;;1.10;;
22289;SDS011;11313;50.116;8.424;2023-07-31T08:58:44;2.50;;;1.08;;
22289;SDS011;11313;50.116;8.424;2023-07-31T09:01:12;1.15;;;0.90;;
22289;SDS011;11313;50.116;8.424;2023-07-31T09:03:38;1.30;;;0.93;;
22289;SDS011;11313;50.116;8.424;2023-07-31T09:06:05;2.80;;;1.17;;
22289;SDS011;11313;50.116;8.424;2023-07-31T09:08:31;1.38;;;1.10;;
22289;SDS011;11313;50.116;8.424;2023-07-31T09:11:00;1.15;;;1.05;;
22289;SDS011;11313;50.116;8.424;2023-07-31T09:13:30;2.05;;;1.20;;
22289;SDS011;11313;50.116;8.424;2023-07-31T09:15:56;1.75;;;1.00;;
22289;SDS011;11313;50.116;8.424;2023-07-31T09:18:22;3.50;;;1.27;;
22289;SDS011;11313;50.116;8.424;2023-07-31T09:21:00;2.80;;;1.30;;
22289;SDS011;11313;50.116;8.424;2023-07-31T09:23:45;2.78;;;1.10;;
22289;SDS011;11313;50.116;8.424;2023-07-31T09:26:28;1.73;;;1.25;;
22289;SDS011;11313;50.116;8.424;2023-07-31T09:28:57;1.30;;;1.00;;
22289;SDS011;11313;50.116;8.424;2023-07-31T09:31:39;1.80;;;1.05;;
22289;SDS011;11313;50.116;8.424;2023-07-31T09:34:08;1.63;;;1.10;;
22289;SDS011;11313;50.116;8.424;2023-07-31T09:36:41;4.07;;;1.20;;
22289;SDS011;11313;50.116;8.424;2023-07-31T09:39:07;1.60;;;1.10;;
22289;SDS011;11313;50.116;8.424;2023-07-31T09:41:42;1.88;;;1.10;;
22289;SDS011;11313;50.116;8.424;2023-07-31T09:44:09;1.50;;;1.00;;
22289;SDS011;11313;50.116;8.424;2023-07-31T09:46:35;2.65;;;1.10;;
22289;SDS011;11313;50.116;8.424;2023-07-31T09:49:08;1.33;;;1.17;;
22289;SDS011;11313;50.116;8.424;2023-07-31T09:51:36;2.38;;;1.02;;
22289;SDS011;11313;50.116;8.424;2023-07-31T09:54:09;1.77;;;1.20;;
22289;SDS011;11313;50.116;8.424;2023-07-31T09:56:36;2.80;;;1.10;;
22289;SDS011;11313;50.116;8.424;2023-07-31T09:59:18;1.42;;;1.15;;
22289;SDS011;11313;50.116;8.424;2023-07-31T10:01:45;2.47;;;1.10;;
22289;SDS011;11313;50.116;8.424;2023-07-31T10:04:12;1.65;;;1.10;;
22289;SDS011;11313;50.116;8.424;2023-07-31T10:06:38;2.58;;;1.27;;
22289;SDS011;11313;50.116;8.424;2023-07-31T10:09:06;1.27;;;1.08;;
22289;SDS011;11313;50.116;8.424;2023-07-31T10:11:34;1.63;;;1.00;;
22289;SDS011;11313;50.116;8.424;2023-07-31T10:14:15;1.88;;;1.10;;
22289;SDS011;11313;50.116;8.424;2023-07-31T10:16:44;1.60;;;1.00;;
22289;SDS011;11313;50.116;8.424;2023-07-31T10:19:10;1.50;;;0.95;;
22289;SDS011;11313;50.116;8.424;2023-07-31T10:21:35;1.65;;;1.20;;
22289;SDS011;11313;50.116;8.424;2023-07-31T10:24:03;1.45;;;1.00;;
22289;SDS011;11313;50.116;8.424;2023-07-31T10:26:29;1.30;;;1.10;;
22289;SDS011;11313;50.116;8.424;2023-07-31T10:28:57;1.10;;;0.90;;
22289;SDS011;11313;50.116;8.424;2023-07-31T10:31:23;1.60;;;1.10;;
22289;SDS011;11313;50.116;8.424;2023-07-31T10:33:49;1.20;;;1.10;;
22289;SDS011;11313;50.116;8.424;2023-07-31T10:36:17;1.25;;;1.00;;
22289;SDS011;11313;50.116;8.424;2023-07-31T10:38:43;1.35;;;1.00;;
22289;SDS011;11313;50.116;8.424;2023-07-31T10:41:09;1.55;;;1.30;;
22289;SDS011;11313;50.116;8.424;2023-07-31T10:43:36;1.30;;;1.00;;
22289;SDS011;11313;50.116;8.424;2023-07-31T10:46:09;1.48;;;1.20;;
22289;SDS011;11313;50.116;8.424;2023-07-31T10:48:38;1.98;;;0.95;;
22289;SDS011;11313;50.116;8.424;2023-07-31T10:51:10;1.30;;;1.10;;
22289;SDS011;11313;50.116;8.424;2023-07-31T10:53:37;1.77;;;1.15;;
22289;SDS011;11313;50.116;8.424;2023-07-31T10:56:12;1.30;;;1.10;;
22289;SDS011;11313;50.116;8.424;2023-07-31T10:58:40;2.92;;;1.27;;
22289;SDS011;11313;50.116;8.424;2023-07-31T11:01:09;1.42;;;1.15;;
22289;SDS011;11313;50.116;8.424;2023-07-31T11:03:41;1.80;;;1.30;;
22289;SDS011;11313;50.116;8.424;2023-07-31T11:06:12;1.67;;;1.20;;
22289;SDS011;11313;50.116;8.424;2023-07-31T11:08:42;2.08;;;1.25;;
22289;SDS011;11313;50.116;8.424;2023-07-31T11:11:10;2.67;;;1.30;;
22289;SDS011;11313;50.116;8.424;2023-07-31T11:13:44;1.58;;;1.30;;
22289;SDS011;11313;50.116;8.424;2023-07-31T11:16:14;1.70;;;1.10;;
22289;SDS011;11313;50.116;8.424;2023-07-31T11:18:41;2.47;;;1.40;;
22289;SDS011;11313;50.116;8.424;2023-07-31T11:21:08;1.90;;;1.23;;
22289;SDS011;11313;50.116;8.424;2023-07-31T11:23:37;1.33;;;1.10;;
22289;SDS011;11313;50.116;8.424;2023-07-31T11:26:04;1.90;;;1.30;;
22289;SDS011;11313;50.116;8.424;2023-07-31T11:28:31;3.30;;;1.20;;
22289;SDS011;11313;50.116;8.424;2023-07-31T11:30:58;1.50;;;1.20;;
22289;SDS011;11313;50.116;8.424;2023-07-31T11:33:24;2.47;;;1.25;;
22289;SDS011;11313;50.116;8.424;2023-07-31T11:35:50;1.25;;;1.10;;
22289;SDS011;11313;50.116;8.424;2023-07-31T11:38:20;2.17;;;1.20;;
22289;SDS011;11313;50.116;8.424;2023-07-31T11:40:55;1.75;;;1.27;;
22289;SDS011;11313;50.116;8.424;2023-07-31T11:43:27;1.77;;;1.27;;
22289;SDS011;11313;50.116;8.424;2023-07-31T11:45:54;2.22;;;1.38;;
22289;SDS011;11313;50.116;8.424;2023-07-31T11:48:21;1.23;;;1.10;;
22289;SDS011;11313;50.116;8.424;2023-07-31T11:50:52;2.47;;;1.30;;
22289;SDS011;11313;50.116;8.424;2023-07-31T11:56:06;1.77;;;1.20;;
22289;SDS011;11313;50.116;8.424;2023-07-31T11:58:36;1.73;;;1.30;;
22289;SDS011;11313;50.116;8.424;2023-07-31T12:01:02;3.22;;;1.50;;
22289;SDS011;11313;50.116;8.424;2023-07-31T12:03:29;1.40;;;1.20;;
22289;SDS011;11313;50.116;8.424;2023-07-31T12:05:56;1.83;;;1.20;;
22289;SDS011;11313;50.116;8.424;2023-07-31T12:08:23;1.35;;;0.98;;
22289;SDS011;11313;50.116;8.424;2023-07-31T12:10:50;1.42;;;1.15;;
22289;SDS011;11313;50.116;8.424;2023-07-31T12:13:20;2.27;;;1.20;;
22289;SDS011;11313;50.116;8.424;2023-07-31T12:18:19;2.08;;;1.30;;
22289;SDS011;11313;50.116;8.424;2023-07-31T12:20:46;2.30;;;1.30;;
22289;SDS011;11313;50.116;8.424;2023-07-31T12:23:25;1.90;;;1.20;;
22289;SDS011;11313;50.116;8.424;2023-07-31T12:26:02;2.47;;;1.52;;
22289;SDS011;11313;50.116;8.424;2023-07-31T12:28:29;2.20;;;1.23;;
22289;SDS011;11313;50.116;8.424;2023-07-31T12:30:58;1.65;;;1.35;;
22289;SDS011;11313;50.116;8.424;2023-07-31T12:33:30;1.67;;;1.20;;
22289;SDS011;11313;50.116;8.424;2023-07-31T12:35:57;1.42;;;1.33;;
22289;SDS011;11313;50.116;8.424;2023-07-31T12:38:23;1.83;;;1.40;;
22289;SDS011;11313;50.116;8.424;2023-07-31T12:40:48;1.58;;;1.02;;
22289;SDS011;11313;50.116;8.424;2023-07-31T12:43:14;3.08;;;1.20;;
22289;SDS011;11313;50.116;8.424;2023-07-31T12:45:40;1.10;;;1.00;;
22289;SDS011;11313;50.116;8.424;2023-07-31T12:48:06;1.90;;;1.30;;
22289;SDS011;11313;50.116;8.424;2023-07-31T12:50:31;1.23;;;1.10;;
22289;SDS011;11313;50.116;8.424;2023-07-31T12:52:57;1.70;;;1.20;;
22289;SDS011;11313;50.116;8.424;2023-07-31T12:55:23;1.45;;;1.25;;
22289;SDS011;11313;50.116;8.424;2023-07-31T12:57:49;1.50;;;1.30;;
22289;SDS011;11313;50.116;8.424;2023-07-31T13:00:15;1.30;;;1.20;;
22289;SDS011;11313;50.116;8.424;2023-07-31T13:02:41;1.42;;;1.20;;
22289;SDS011;11313;50.116;8.424;2023-07-31T13:05:06;1.45;;;1.10;;
22289;SDS011;11313;50.116;8.424;2023-07-31T13:07:32;2.00;;;1.33;;
22289;SDS011;11313;50.116;8.424;2023-07-31T13:09:57;1.60;;;1.27;;
22289;SDS011;11313;50.116;8.424;2023-07-31T13:12:23;1.60;;;1.20;;
22289;SDS011;11313;50.116;8.424;2023-07-31T13:14:49;2.08;;;1.38;;
22289;SDS011;11313;50.116;8.424;2023-07-31T13:17:15;2.00;;;1.50;;
22289;SDS011;11313;50.116;8.424;2023-07-31T13:19:41;2.47;;;1.27;;
22289;SDS011;11313;50.116;8.424;2023-07-31T13:22:07;2.25;;;1.38;;
22289;SDS011;11313;50.116;8.424;2023-07-31T13:24:33;1.70;;;1.30;;
22289;SDS011;11313;50.116;8.424;2023-07-31T13:26:58;1.30;;;1.20;;
22289;SDS011;11313;50.116;8.424;2023-07-31T13:29:24;1.80;;;1.50;;
22289;SDS011;11313;50.116;8.424;2023-07-31T13:31:50;1.65;;;1.52;;
22289;SDS011;11313;50.116;8.424;2023-07-31T13:34:17;1.83;;;1.38;;
22289;SDS011;11313;50.116;8.424;2023-07-31T13:36:42;1.88;;;1.30;;
22289;SDS011;11313;50.116;8.424;2023-07-31T13:39:08;1.80;;;1.30;;
22289;SDS011;11313;50.116;8.424;2023-07-31T13:41:33;1.83;;;1.20;;
22289;SDS011;11313;50.116;8.424;2023-07-31T13:43:58;2.42;;;1.42;;
22289;SDS011;11313;50.116;8.424;2023-07-31T13:46:24;1.75;;;1.48;;
22289;SDS011;11313;50.116;8.424;2023-07-31T13:48:50;1.90;;;1.30;;
22289;SDS011;11313;50.116;8.424;2023-07-31T13:51:16;1.35;;;1.17;;
22289;SDS011;11313;50.116;8.424;2023-07-31T13:53:41;1.83;;;1.30;;
22289;SDS011;11313;50.116;8.424;2023-07-31T13:56:07;1.80;;;1.50;;
22289;SDS011;11313;50.116;8.424;2023-07-31T13:58:33;1.60;;;1.38;;
22289;SDS011;11313;50.116;8.424;2023-07-31T14:00:58;1.60;;;1.30;;
22289;SDS011;11313;50.116;8.424;2023-07-31T14:03:24;1.83;;;1.33;;
22289;SDS011;11313;50.116;8.424;2023-07-31T14:05:49;2.33;;;1.58;;
22289;SDS011;11313;50.116;8.424;2023-07-31T14:08:16;2.25;;;1.50;;
22289;SDS011;11313;50.116;8.424;2023-07-31T14:10:42;2.05;;;1.38;;
22289;SDS011;11313;50.116;8.424;2023-07-31T14:13:07;1.50;;;1.13;;
22289;SDS011;11313;50.116;8.424;2023-07-31T14:15:33;2.17;;;1.55;;
22289;SDS011;11313;50.116;8.424;2023-07-31T14:18:00;1.38;;;1.27;;
22289;SDS011;11313;50.116;8.424;2023-07-31T14:20:26;1.77;;;1.40;;
22289;SDS011;11313;50.116;8.424;2023-07-31T14:22:51;1.80;;;1.40;;
22289;SDS011;11313;50.116;8.424;2023-07-31T14:25:17;1.58;;;1.27;;
22289;SDS011;11313;50.116;8.424;2023-07-31T14:27:42;1.80;;;1.30;;
22289;SDS011;11313;50.116;8.424;2023-07-31T14:30:08;1.65;;;1.40;;
22289;SDS011;11313;50.116;8.424;2023-07-31T14:32:34;1.70;;;1.45;;
22289;SDS011;11313;50.116;8.424;2023-07-31T14:34:59;2.55;;;1.40;;
22289;SDS011;11313;50.116;8.424;2023-07-31T14:37:25;2.08;;;1.50;;
22289;SDS011;11313;50.116;8.424;2023-07-31T14:39:52;2.03;;;1.30;;
22289;SDS011;11313;50.116;8.424;2023-07-31T14:42:17;1.98;;;1.33;;
22289;SDS011;11313;50.116;8.424;2023-07-31T14:44:44;1.83;;;1.27;;
22289;SDS011;11313;50.116;8.424;2023-07-31T14:47:09;1.65;;;1.40;;
22289;SDS011;11313;50.116;8.424;2023-07-31T14:49:35;2.20;;;1.25;;
22289;SDS011;11313;50.116;8.424;2023-07-31T14:52:00;2.53;;;1.23;;
22289;SDS011;11313;50.116;8.424;2023-07-31T14:54:26;1.75;;;1.38;;
22289;SDS011;11313;50.116;8.424;2023-07-31T14:56:51;1.83;;;1.50;;